createdAt,value
2022-10-28T00:00:38.556Z,12.40
2022-10-28T00:03:05.540Z,12.40
2022-10-28T00:05:35.014Z,12.40
2022-10-28T00:08:01.948Z,12.40
2022-10-28T00:10:28.839Z,12.40
2022-10-28T00:12:55.694Z,12.40
2022-10-28T00:15:22.623Z,12.40
2022-10-28T00:17:49.557Z,12.40
2022-10-28T00:20:16.532Z,12.40
2022-10-28T00:22:43.533Z,12.50
2022-10-28T00:25:11.009Z,12.40
2022-10-28T00:27:37.912Z,12.40
2022-10-28T00:30:05.535Z,12.40
2022-10-28T00:32:32.708Z,12.40
2022-10-28T00:34:59.540Z,12.50
2022-10-28T00:37:26.348Z,12.40
2022-10-28T00:39:53.235Z,12.40
2022-10-28T00:42:22.490Z,12.40
2022-10-28T00:44:54.281Z,12.50
2022-10-28T00:47:21.087Z,12.50
2022-10-28T00:49:49.074Z,12.50
2022-10-28T00:52:24.429Z,12.50
2022-10-28T00:54:52.917Z,12.50
2022-10-28T00:57:24.415Z,12.50
2022-10-28T00:59:53.484Z,12.50
2022-10-28T01:02:21.311Z,12.50
2022-10-28T01:04:48.569Z,12.50
2022-10-28T01:07:16.892Z,12.60
2022-10-28T01:09:44.691Z,12.50
2022-10-28T01:12:14.274Z,12.50
2022-10-28T01:14:47.007Z,12.50
2022-10-28T01:17:51.428Z,12.50
2022-10-28T01:20:39.794Z,12.60
2022-10-28T01:23:18.416Z,12.60
2022-10-28T01:25:57.392Z,12.60
2022-10-28T01:28:33.671Z,12.60
2022-10-28T01:31:27.576Z,12.60
2022-10-28T01:33:58.020Z,12.60
2022-10-28T01:36:36.509Z,12.60
2022-10-28T01:39:08.966Z,12.60
2022-10-28T01:41:57.291Z,12.60
2022-10-28T01:44:52.819Z,12.60
2022-10-28T01:47:27.386Z,12.60
2022-10-28T01:50:31.403Z,12.60
2022-10-28T01:53:01.260Z,12.70
2022-10-28T01:55:36.366Z,12.60
2022-10-28T01:58:05.055Z,12.70
2022-10-28T02:00:32.993Z,12.70
2022-10-28T02:03:00.083Z,12.70
2022-10-28T02:05:42.355Z,12.60
2022-10-28T02:08:18.135Z,12.60
2022-10-28T02:10:59.995Z,12.60
2022-10-28T02:13:50.976Z,12.60
2022-10-28T02:16:27.588Z,12.60
2022-10-28T02:19:17.572Z,12.60
2022-10-28T02:21:47.103Z,12.60
2022-10-28T02:24:37.572Z,12.60
2022-10-28T02:27:13.684Z,12.60
2022-10-28T02:30:06.699Z,12.60
2022-10-28T02:32:38.584Z,12.70
2022-10-28T02:35:11.937Z,12.60
2022-10-28T02:37:40.545Z,12.60
2022-10-28T02:40:14.118Z,12.60
2022-10-28T02:42:50.463Z,12.60
2022-10-28T02:45:22.433Z,12.60
2022-10-28T02:47:55.703Z,12.60
2022-10-28T02:50:32.614Z,12.60
2022-10-28T02:53:02.295Z,12.60
2022-10-28T02:55:35.450Z,12.60
2022-10-28T02:58:02.483Z,12.60
2022-10-28T03:00:29.380Z,12.60
2022-10-28T03:02:56.276Z,12.60
2022-10-28T03:05:23.239Z,12.50
2022-10-28T03:07:50.082Z,12.50
2022-10-28T03:10:17.331Z,12.50
2022-10-28T03:12:44.138Z,12.60
2022-10-28T03:15:11.308Z,12.50
2022-10-28T03:17:38.155Z,12.60
2022-10-28T03:20:05.543Z,12.50
2022-10-28T03:22:32.416Z,12.50
2022-10-28T03:24:59.322Z,12.50
2022-10-28T03:27:26.138Z,12.40
2022-10-28T03:29:53.067Z,12.40
2022-10-28T03:32:19.927Z,12.30
2022-10-28T03:34:47.573Z,12.20
2022-10-28T03:37:14.682Z,12.10
2022-10-28T03:39:41.566Z,12.00
2022-10-28T03:42:08.717Z,11.90
2022-10-28T03:44:35.682Z,11.80
2022-10-28T03:47:02.574Z,11.80
2022-10-28T03:49:29.420Z,11.60
2022-10-28T03:51:56.356Z,11.60
2022-10-28T03:54:23.231Z,11.60
2022-10-28T03:56:50.055Z,11.60
2022-10-28T03:59:19.354Z,11.60
2022-10-28T04:01:47.324Z,11.60
2022-10-28T04:04:14.325Z,11.70
2022-10-28T04:06:41.195Z,11.70
2022-10-28T04:09:08.117Z,11.80
2022-10-28T04:11:35.059Z,11.80
2022-10-28T04:14:02.081Z,11.80
2022-10-28T04:16:29.104Z,11.80
2022-10-28T04:18:55.999Z,11.80
2022-10-28T04:21:22.895Z,11.70
2022-10-28T04:23:49.739Z,11.60
2022-10-28T04:26:16.634Z,11.60
2022-10-28T04:28:43.439Z,11.50
2022-10-28T04:31:12.225Z,11.50
2022-10-28T04:33:39.208Z,11.50
2022-10-28T04:36:06.458Z,11.50
2022-10-28T04:38:33.371Z,11.40
2022-10-28T04:41:02.421Z,11.40
2022-10-28T04:43:29.260Z,11.40
2022-10-28T04:45:56.122Z,11.30
2022-10-28T04:48:23.177Z,11.30
2022-10-28T04:50:51.066Z,11.30
2022-10-28T04:53:17.998Z,11.30
2022-10-28T04:55:45.471Z,11.20
2022-10-28T04:58:12.496Z,11.20
2022-10-28T05:00:39.405Z,11.20
2022-10-28T05:03:06.355Z,11.20
2022-10-28T05:05:33.727Z,11.20
2022-10-28T05:08:00.688Z,11.10
2022-10-28T05:10:27.608Z,11.20
2022-10-28T05:12:54.485Z,11.20
2022-10-28T05:15:21.351Z,11.30
2022-10-28T05:17:48.507Z,11.20
2022-10-28T05:20:17.428Z,11.20
2022-10-28T05:22:48.054Z,11.20
2022-10-28T05:25:15.099Z,11.20
2022-10-28T05:27:42.264Z,11.30
2022-10-28T05:30:10.182Z,11.30
2022-10-28T05:32:37.103Z,11.30
2022-10-28T05:35:04.398Z,11.40
2022-10-28T05:37:31.290Z,11.30
2022-10-28T05:39:58.166Z,11.30
2022-10-28T05:42:25.208Z,11.30
2022-10-28T05:44:52.096Z,11.30
2022-10-28T05:47:19.001Z,11.30
2022-10-28T05:49:45.902Z,11.30
2022-10-28T05:52:12.815Z,11.40
2022-10-28T05:54:39.676Z,11.30
2022-10-28T05:57:06.548Z,11.40
2022-10-28T05:59:33.403Z,11.30
2022-10-28T06:02:00.352Z,11.40
2022-10-28T06:04:27.308Z,11.40
2022-10-28T06:06:56.147Z,11.40
2022-10-28T06:09:23.070Z,11.40
2022-10-28T06:11:48.416Z,11.40
2022-10-28T06:14:15.238Z,11.40
2022-10-28T06:16:42.429Z,11.40
2022-10-28T06:19:09.393Z,11.50
2022-10-28T06:21:36.293Z,11.50
2022-10-28T06:24:03.653Z,11.60
2022-10-28T06:26:30.610Z,11.60
2022-10-28T06:28:57.450Z,11.70
2022-10-28T06:31:24.325Z,11.80
2022-10-28T06:33:51.192Z,11.80
2022-10-28T06:36:18.059Z,11.80
2022-10-28T06:38:46.055Z,11.80
2022-10-28T06:41:12.971Z,11.90
2022-10-28T06:43:39.842Z,11.90
2022-10-28T06:46:06.738Z,12.00
2022-10-28T06:48:35.211Z,12.00
2022-10-28T06:51:02.089Z,12.00
2022-10-28T06:53:29.062Z,12.10
2022-10-28T06:55:57.693Z,12.10
2022-10-28T06:58:25.786Z,12.20
2022-10-28T07:00:53.304Z,12.20
2022-10-28T07:03:20.568Z,12.20
2022-10-28T07:05:49.293Z,12.20
2022-10-28T07:08:17.007Z,12.30
2022-10-28T07:10:45.029Z,12.30
2022-10-28T07:13:12.203Z,12.30
2022-10-28T07:15:39.127Z,12.30
2022-10-28T07:18:06.207Z,12.40
2022-10-28T07:20:33.085Z,12.50
2022-10-28T07:23:02.013Z,12.60
2022-10-28T07:25:30.676Z,12.70
2022-10-28T07:27:58.839Z,12.70
2022-10-28T07:30:26.533Z,12.80
2022-10-28T07:32:53.925Z,12.80
2022-10-28T07:35:21.351Z,12.80
2022-10-28T07:37:48.247Z,12.80
2022-10-28T07:40:15.449Z,12.80
2022-10-28T07:42:42.411Z,12.80
2022-10-28T07:45:09.887Z,12.90
2022-10-28T07:47:36.881Z,12.90
2022-10-28T07:50:04.592Z,12.90
2022-10-28T07:52:31.734Z,12.90
2022-10-28T07:54:58.609Z,13.00
2022-10-28T07:57:25.609Z,12.90
2022-10-28T07:59:52.480Z,13.00
2022-10-28T08:02:21.576Z,13.00
2022-10-28T08:04:49.078Z,13.10
2022-10-28T08:07:16.191Z,13.10
2022-10-28T08:09:43.045Z,13.20
2022-10-28T08:12:13.677Z,13.10
2022-10-28T08:14:40.628Z,13.20
2022-10-28T08:17:07.742Z,13.20
2022-10-28T08:19:34.603Z,13.20
2022-10-28T08:22:02.508Z,13.20
2022-10-28T08:24:29.485Z,13.10
2022-10-28T08:26:56.356Z,13.10
2022-10-28T08:29:27.657Z,13.10
2022-10-28T08:31:57.899Z,13.20
2022-10-28T08:34:29.933Z,13.20
2022-10-28T08:36:57.869Z,13.30
2022-10-28T08:39:25.007Z,13.30
2022-10-28T08:42:09.661Z,13.30
2022-10-28T08:44:53.420Z,13.30
2022-10-28T08:47:41.775Z,13.20
2022-10-28T08:50:31.918Z,13.10
2022-10-28T08:53:12.558Z,13.20
2022-10-28T08:55:46.236Z,13.10
2022-10-28T08:58:26.646Z,13.10
2022-10-28T09:00:55.975Z,13.00
2022-10-28T09:03:26.052Z,13.00
2022-10-28T09:06:07.799Z,13.00
2022-10-28T09:08:37.822Z,13.00
2022-10-28T09:11:10.793Z,12.90
2022-10-28T09:13:51.565Z,12.90
2022-10-28T09:16:27.657Z,12.90
2022-10-28T09:18:56.570Z,13.00
2022-10-28T09:21:42.182Z,13.00
2022-10-28T09:24:24.153Z,13.00
2022-10-28T09:27:03.158Z,13.00
2022-10-28T09:29:38.253Z,13.00
2022-10-28T09:32:31.270Z,13.00
2022-10-28T09:35:15.433Z,13.10
2022-10-28T09:37:51.355Z,13.10
2022-10-28T09:40:49.463Z,13.20
2022-10-28T09:43:23.137Z,13.20
2022-10-28T09:45:52.288Z,13.30
2022-10-28T09:48:45.555Z,13.20
2022-10-28T09:51:34.883Z,13.10
2022-10-28T09:54:02.486Z,13.10
2022-10-28T09:56:30.517Z,13.00
2022-10-28T09:59:03.197Z,13.00
2022-10-28T10:01:41.776Z,13.00
2022-10-28T10:04:23.657Z,13.10
2022-10-28T10:06:54.247Z,13.10
2022-10-28T10:09:25.546Z,13.20
2022-10-28T10:12:00.730Z,13.30
2022-10-28T10:14:37.266Z,13.30
2022-10-28T10:17:10.296Z,13.30
2022-10-28T10:20:05.365Z,13.40
2022-10-28T10:22:38.175Z,13.40
2022-10-28T10:25:23.896Z,13.50
2022-10-28T10:27:55.869Z,13.50
2022-10-28T10:30:29.357Z,13.50
2022-10-28T10:32:57.589Z,13.50
2022-10-28T10:35:33.147Z,13.60
2022-10-28T10:38:06.677Z,13.50
2022-10-28T10:40:51.458Z,13.50
2022-10-28T10:43:18.438Z,13.50
2022-10-28T10:46:02.539Z,13.50
2022-10-28T10:48:32.469Z,13.50
2022-10-28T10:51:07.770Z,13.50
2022-10-28T10:53:36.271Z,13.50
2022-10-28T10:56:06.462Z,13.50
2022-10-28T10:58:40.439Z,13.40
2022-10-28T11:01:09.648Z,13.40
2022-10-28T11:03:39.300Z,13.50
2022-10-28T11:06:24.774Z,13.50
2022-10-28T11:09:01.408Z,13.50
2022-10-28T11:11:41.352Z,13.50
2022-10-28T11:14:12.404Z,13.50
2022-10-28T11:16:54.118Z,13.50
2022-10-28T11:19:23.829Z,13.60
2022-10-28T11:22:14.219Z,13.60
2022-10-28T11:24:47.177Z,13.70
2022-10-28T11:27:35.872Z,13.70
2022-10-28T11:30:03.168Z,13.70
2022-10-28T11:33:30.418Z,13.70
2022-10-28T11:36:20.793Z,13.70
2022-10-28T11:38:55.140Z,13.70
2022-10-28T11:41:22.033Z,13.70
2022-10-28T11:43:58.563Z,13.70
2022-10-28T11:46:40.609Z,13.70
2022-10-28T11:49:35.226Z,13.80
2022-10-28T11:52:26.893Z,13.80
2022-10-28T11:55:27.507Z,13.90
2022-10-28T11:58:19.323Z,14.00
2022-10-28T12:01:18.469Z,14.10
2022-10-28T12:04:20.051Z,14.20
2022-10-28T12:07:24.074Z,14.30
2022-10-28T12:10:02.814Z,14.30
2022-10-28T12:12:44.817Z,14.20
2022-10-28T12:15:40.684Z,14.10
2022-10-28T12:18:22.203Z,14.10
2022-10-28T12:20:59.468Z,14.10
2022-10-28T12:23:27.391Z,14.10
2022-10-28T12:25:57.520Z,14.10
2022-10-28T12:28:41.364Z,14.20
2022-10-28T12:31:21.891Z,14.10
2022-10-28T12:33:53.251Z,14.10
2022-10-28T12:36:40.340Z,14.20
2022-10-28T12:39:21.561Z,14.20
2022-10-28T12:41:59.980Z,14.20
2022-10-28T12:44:28.321Z,14.10
2022-10-28T12:47:12.625Z,14.10
2022-10-28T12:50:27.019Z,14.00
2022-10-28T12:53:18.846Z,14.00
2022-10-28T12:55:56.581Z,13.90
2022-10-28T12:58:36.109Z,13.90
2022-10-28T13:01:13.271Z,13.90
2022-10-28T13:03:40.984Z,13.90
2022-10-28T13:06:19.639Z,13.90
2022-10-28T13:09:10.606Z,14.00
2022-10-28T13:12:09.245Z,14.00
2022-10-28T13:15:03.062Z,13.90
2022-10-28T13:17:53.169Z,14.00
2022-10-28T13:20:29.400Z,13.90
2022-10-28T13:23:16.004Z,13.80
2022-10-28T13:26:01.206Z,13.80
2022-10-28T13:28:41.481Z,13.70
2022-10-28T13:31:08.966Z,13.50
2022-10-28T13:33:37.877Z,13.50
2022-10-28T13:36:18.962Z,13.50
2022-10-28T13:39:01.518Z,13.40
2022-10-28T13:41:35.312Z,13.40
2022-10-28T13:44:11.137Z,13.30
2022-10-28T13:47:01.321Z,13.30
2022-10-28T13:49:35.634Z,13.30
2022-10-28T13:52:18.724Z,13.40
2022-10-28T13:54:45.551Z,13.40
2022-10-28T13:57:36.885Z,13.30
2022-10-28T14:00:26.118Z,13.30
2022-10-28T14:03:02.103Z,13.20
2022-10-28T14:05:38.062Z,13.10
2022-10-28T14:08:19.618Z,13.00
2022-10-28T14:11:10.203Z,13.00
2022-10-28T14:14:00.876Z,12.90
2022-10-28T14:16:43.967Z,12.90
2022-10-28T14:19:10.988Z,12.90
2022-10-28T14:22:01.498Z,13.00
2022-10-28T14:24:34.021Z,13.00
2022-10-28T14:27:06.806Z,12.90
2022-10-28T14:29:48.072Z,12.90
2022-10-28T14:32:33.797Z,12.90
2022-10-28T14:35:13.198Z,13.00
2022-10-28T14:37:58.733Z,12.90
2022-10-28T14:40:44.664Z,12.90
2022-10-28T14:43:35.976Z,13.00
2022-10-28T14:46:36.922Z,13.00
2022-10-28T14:49:05.217Z,13.00
2022-10-28T14:51:41.936Z,12.90
2022-10-28T14:54:15.228Z,12.90
2022-10-28T14:56:43.022Z,12.90
2022-10-28T14:59:24.921Z,12.90
2022-10-28T15:02:12.088Z,12.90
2022-10-28T15:04:41.663Z,12.90
2022-10-28T15:07:14.987Z,12.90
2022-10-28T15:09:44.069Z,12.90
2022-10-28T15:12:19.402Z,12.80
2022-10-28T15:14:52.319Z,12.70
2022-10-28T15:17:28.387Z,12.70
2022-10-28T15:19:57.985Z,12.60
2022-10-28T15:22:30.865Z,12.60
2022-10-28T15:24:57.784Z,12.60
2022-10-28T15:27:27.183Z,12.50
2022-10-28T15:29:55.949Z,12.60
2022-10-28T15:32:22.732Z,12.60
2022-10-28T15:34:49.851Z,12.60
2022-10-28T15:37:25.101Z,12.60
2022-10-28T15:40:06.256Z,12.50
2022-10-28T15:42:49.503Z,12.60
2022-10-28T15:45:20.000Z,12.60
2022-10-28T15:47:48.695Z,12.60
2022-10-28T15:50:15.514Z,12.60
2022-10-28T15:52:44.249Z,12.60
2022-10-28T15:55:21.757Z,12.60
2022-10-28T15:57:59.021Z,12.60
2022-10-28T16:00:30.953Z,12.60
2022-10-28T16:03:02.801Z,12.60
2022-10-28T16:05:32.550Z,12.60
2022-10-28T16:08:20.547Z,12.60
2022-10-28T16:10:56.492Z,12.70
2022-10-28T16:13:40.089Z,12.70
2022-10-28T16:16:10.514Z,12.70
2022-10-28T16:18:47.774Z,12.70
2022-10-28T16:21:24.180Z,12.70
2022-10-28T16:24:01.898Z,12.70
2022-10-28T16:26:31.275Z,12.70
2022-10-28T16:28:58.117Z,12.70
2022-10-28T16:31:28.622Z,12.80
2022-10-28T16:33:55.689Z,12.80
2022-10-28T16:36:22.559Z,12.80
2022-10-28T16:38:49.499Z,12.80
2022-10-28T16:41:18.759Z,12.80
2022-10-28T16:43:46.220Z,12.70
2022-10-28T16:46:14.627Z,12.70
2022-10-28T16:48:41.841Z,12.70
2022-10-28T16:51:17.647Z,12.70
2022-10-28T16:53:47.418Z,12.80
2022-10-28T16:56:17.717Z,12.70
2022-10-28T16:58:44.769Z,12.80
2022-10-28T17:01:13.539Z,12.70
2022-10-28T17:03:40.413Z,12.70
2022-10-28T17:06:08.713Z,12.70
2022-10-28T17:09:01.394Z,12.80
2022-10-28T17:11:22.464Z,12.80
2022-10-28T17:13:49.327Z,12.80
2022-10-28T17:16:16.171Z,12.80
2022-10-28T17:18:44.279Z,12.80
2022-10-28T17:21:11.163Z,12.80
2022-10-28T17:23:39.901Z,12.80
2022-10-28T17:26:06.923Z,12.80
2022-10-28T17:28:33.828Z,12.80
2022-10-28T17:31:05.240Z,12.80
2022-10-28T17:33:32.548Z,12.80
2022-10-28T17:36:05.280Z,12.80
2022-10-28T17:38:32.384Z,12.80
2022-10-28T17:40:59.435Z,12.80
2022-10-28T17:43:26.329Z,12.90
2022-10-28T17:45:55.018Z,12.80
2022-10-28T17:48:21.813Z,12.80
2022-10-28T17:50:55.228Z,12.90
2022-10-28T17:53:22.348Z,12.90
2022-10-28T17:55:57.009Z,12.90
2022-10-28T17:58:24.331Z,12.90
2022-10-28T18:01:04.238Z,12.90
2022-10-28T18:03:35.531Z,13.00
2022-10-28T18:06:07.782Z,13.00
2022-10-28T18:08:37.545Z,13.00
2022-10-28T18:11:05.625Z,13.00
2022-10-28T18:13:35.205Z,13.00
2022-10-28T18:16:09.035Z,13.00
2022-10-28T18:18:41.049Z,13.00
2022-10-28T18:21:11.291Z,13.00
2022-10-28T18:23:38.507Z,13.00
2022-10-28T18:26:14.086Z,13.00
2022-10-28T18:28:42.111Z,13.00
2022-10-28T18:31:20.239Z,13.10
2022-10-28T18:33:49.746Z,13.10
2022-10-28T18:36:19.699Z,13.10
2022-10-28T18:38:46.664Z,13.10
2022-10-28T18:41:16.692Z,13.10
2022-10-28T18:43:43.608Z,13.10
2022-10-28T18:46:10.716Z,13.10
2022-10-28T18:48:37.711Z,13.10
2022-10-28T18:51:06.901Z,13.10
2022-10-28T18:53:41.685Z,13.10
2022-10-28T18:56:17.673Z,13.10
2022-10-28T18:58:45.295Z,13.10
2022-10-28T19:01:18.296Z,13.10
2022-10-28T19:03:45.389Z,13.10
2022-10-28T19:06:14.831Z,13.10
2022-10-28T19:08:42.285Z,13.10
2022-10-28T19:11:11.540Z,13.10
2022-10-28T19:13:40.610Z,13.10
2022-10-28T19:16:08.827Z,13.10
2022-10-28T19:18:38.259Z,13.10
2022-10-28T19:21:12.566Z,13.10
2022-10-28T19:23:39.974Z,13.10
2022-10-28T19:26:08.050Z,13.20
2022-10-28T19:28:43.924Z,13.20
2022-10-28T19:31:13.209Z,13.30
2022-10-28T19:33:40.328Z,13.30
2022-10-28T19:36:18.625Z,13.30
2022-10-28T19:38:47.412Z,13.30
2022-10-28T19:41:16.040Z,13.40
2022-10-28T19:43:42.937Z,13.40
2022-10-28T19:46:18.250Z,13.40
2022-10-28T19:48:49.661Z,13.40
2022-10-28T19:51:19.145Z,13.40
2022-10-28T19:53:50.396Z,13.50
2022-10-28T19:56:19.447Z,13.50
2022-10-28T19:58:49.199Z,13.50
2022-10-28T20:01:17.581Z,13.50
2022-10-28T20:03:48.947Z,13.50
2022-10-28T20:06:17.679Z,13.50
2022-10-28T20:08:49.379Z,13.50
2022-10-28T20:11:24.717Z,13.60
2022-10-28T20:13:58.415Z,13.60
2022-10-28T20:16:25.903Z,13.60
2022-10-28T20:18:56.610Z,13.60
2022-10-28T20:21:26.065Z,13.60
2022-10-28T20:23:55.233Z,13.60
2022-10-28T20:26:25.912Z,13.60
2022-10-28T20:28:53.011Z,13.60
2022-10-28T20:31:22.435Z,13.70
2022-10-28T20:33:54.412Z,13.70
2022-10-28T20:36:27.118Z,13.60
2022-10-28T20:39:18.026Z,13.70
2022-10-28T20:41:46.339Z,13.60
2022-10-28T20:44:13.699Z,13.60
2022-10-28T20:46:40.666Z,13.70
2022-10-28T20:49:10.961Z,13.70
2022-10-28T20:51:37.966Z,13.70
2022-10-28T20:54:05.078Z,13.70
2022-10-28T20:56:34.706Z,13.70
2022-10-28T20:59:01.630Z,13.70
2022-10-28T21:01:36.850Z,13.60
2022-10-28T21:04:06.389Z,13.70
2022-10-28T21:06:33.800Z,13.60
2022-10-28T21:09:00.946Z,13.70
2022-10-28T21:11:29.048Z,13.70
2022-10-28T21:13:59.411Z,13.60
2022-10-28T21:16:27.669Z,13.60
2022-10-28T21:18:54.967Z,13.60
2022-10-28T21:21:23.313Z,13.70
2022-10-28T21:23:50.223Z,13.60
2022-10-28T21:26:20.523Z,13.60
2022-10-28T21:28:52.075Z,13.60
2022-10-28T21:31:20.766Z,13.60
2022-10-28T21:36:22.045Z,13.50
2022-10-28T21:38:52.344Z,13.50
2022-10-28T21:41:20.791Z,13.40
2022-10-28T21:43:50.442Z,13.40
2022-10-28T21:46:19.076Z,13.40
2022-10-28T21:48:46.141Z,13.40
2022-10-28T21:51:15.163Z,13.40
2022-10-28T21:53:43.935Z,13.40
2022-10-28T21:56:16.940Z,13.30
2022-10-28T21:58:44.458Z,13.40
2022-10-28T22:01:22.018Z,13.40
2022-10-28T22:03:50.104Z,13.40
2022-10-28T22:06:17.286Z,13.30
2022-10-28T22:08:44.270Z,13.30
2022-10-28T22:11:16.302Z,13.20
2022-10-28T22:13:43.519Z,13.20
2022-10-28T22:16:12.458Z,13.20
2022-10-28T22:18:39.355Z,13.20
2022-10-28T22:21:14.152Z,13.20
2022-10-28T22:23:41.242Z,13.20
2022-10-28T22:26:11.109Z,13.20
2022-10-28T22:28:38.981Z,13.20
2022-10-28T22:31:08.405Z,13.30
2022-10-28T22:33:35.789Z,13.20
2022-10-28T22:36:05.708Z,13.30
2022-10-28T22:38:33.247Z,13.30
2022-10-28T22:41:21.034Z,13.20
2022-10-28T22:43:56.240Z,13.30
2022-10-28T22:46:26.191Z,13.30
2022-10-28T22:48:53.532Z,13.30
2022-10-28T22:51:21.256Z,13.30
2022-10-28T22:53:48.240Z,13.30
2022-10-28T22:56:20.741Z,13.30
2022-10-28T22:58:48.897Z,13.30
2022-10-28T23:01:18.559Z,13.20
2022-10-28T23:03:47.568Z,13.20
2022-10-28T23:06:15.236Z,13.20
2022-10-28T23:08:43.037Z,13.10
2022-10-28T23:11:10.394Z,13.10
2022-10-28T23:16:14.939Z,13.10
2022-10-28T23:18:42.866Z,13.00
2022-10-28T23:21:15.229Z,13.00
2022-10-28T23:23:43.069Z,13.00
2022-10-28T23:26:11.142Z,12.90
2022-10-28T23:28:38.038Z,13.00
2022-10-28T23:31:06.089Z,12.90
2022-10-28T23:33:34.050Z,13.00
2022-10-28T23:36:03.754Z,12.90
2022-10-28T23:38:31.553Z,12.90
2022-10-28T23:41:00.494Z,13.00
2022-10-28T23:43:28.570Z,13.00
2022-10-28T23:45:56.116Z,13.00
2022-10-28T23:48:23.452Z,13.00
2022-10-28T23:50:51.176Z,13.00
2022-10-28T23:53:18.898Z,13.00
2022-10-28T23:55:47.529Z,13.00
2022-10-28T23:58:16.086Z,13.00
